sensor_id;sensor_type;location;lat;lon;timestamp;P1;durP1;ratioP1;P2;durP2;ratioP2
40849;SDS011;26571;41.610;25.380;2022-10-16T00:02:14;2.85;;;1.67;;
40849;SDS011;26571;41.610;25.380;2022-10-16T00:04:39;3.97;;;1.52;;
40849;SDS011;26571;41.610;25.380;2022-10-16T00:07:05;4.90;;;2.20;;
40849;SDS011;26571;41.610;25.380;2022-10-16T00:09:30;4.03;;;2.28;;
40849;SDS011;26571;41.610;25.380;2022-10-16T00:11:56;7.63;;;3.33;;
40849;SDS011;26571;41.610;25.380;2022-10-16T00:14:21;6.55;;;3.42;;
40849;SDS011;26571;41.610;25.380;2022-10-16T00:16:47;4.82;;;2.08;;
40849;SDS011;26571;41.610;25.380;2022-10-16T00:19:12;5.22;;;2.47;;
40849;SDS011;26571;41.610;25.380;2022-10-16T00:21:38;5.60;;;2.42;;
40849;SDS011;26571;41.610;25.380;2022-10-16T00:24:05;3.10;;;1.67;;
40849;SDS011;26571;41.610;25.380;2022-10-16T00:26:34;4.32;;;2.70;;
40849;SDS011;26571;41.610;25.380;2022-10-16T00:31:26;4.95;;;1.17;;
40849;SDS011;26571;41.610;25.380;2022-10-16T00:33:52;3.17;;;1.95;;
40849;SDS011;26571;41.610;25.380;2022-10-16T00:36:19;4.57;;;1.55;;
40849;SDS011;26571;41.610;25.380;2022-10-16T00:38:46;4.95;;;1.65;;
40849;SDS011;26571;41.610;25.380;2022-10-16T00:41:13;4.88;;;1.70;;
40849;SDS011;26571;41.610;25.380;2022-10-16T00:46:13;7.10;;;3.03;;
40849;SDS011;26571;41.610;25.380;2022-10-16T00:48:44;4.05;;;2.55;;
40849;SDS011;26571;41.610;25.380;2022-10-16T00:51:15;4.30;;;2.35;;
40849;SDS011;26571;41.610;25.380;2022-10-16T00:53:42;8.27;;;4.63;;
40849;SDS011;26571;41.610;25.380;2022-10-16T00:56:09;6.57;;;3.45;;
40849;SDS011;26571;41.610;25.380;2022-10-16T00:58:34;7.68;;;4.35;;
40849;SDS011;26571;41.610;25.380;2022-10-16T01:01:00;4.85;;;3.47;;
40849;SDS011;26571;41.610;25.380;2022-10-16T01:03:31;4.63;;;3.10;;
40849;SDS011;26571;41.610;25.380;2022-10-16T01:11:27;8.05;;;4.00;;
40849;SDS011;26571;41.610;25.380;2022-10-16T01:14:02;7.88;;;5.82;;
40849;SDS011;26571;41.610;25.380;2022-10-16T01:20:03;10.07;;;9.07;;
40849;SDS011;26571;41.610;25.380;2022-10-16T01:22:41;9.15;;;6.50;;
40849;SDS011;26571;41.610;25.380;2022-10-16T01:25:18;5.90;;;5.07;;
40849;SDS011;26571;41.610;25.380;2022-10-16T01:27:58;4.78;;;4.28;;
40849;SDS011;26571;41.610;25.380;2022-10-16T01:30:27;6.47;;;3.40;;
40849;SDS011;26571;41.610;25.380;2022-10-16T01:32:57;4.20;;;3.90;;
40849;SDS011;26571;41.610;25.380;2022-10-16T01:35:41;4.22;;;3.03;;
40849;SDS011;26571;41.610;25.380;2022-10-16T01:40:44;4.10;;;3.80;;
40849;SDS011;26571;41.610;25.380;2022-10-16T01:43:15;4.13;;;2.47;;
40849;SDS011;26571;41.610;25.380;2022-10-16T01:45:45;4.47;;;2.15;;
40849;SDS011;26571;41.610;25.380;2022-10-16T01:48:14;2.67;;;2.47;;
40849;SDS011;26571;41.610;25.380;2022-10-16T01:50:43;4.68;;;1.60;;
40849;SDS011;26571;41.610;25.380;2022-10-16T01:53:13;6.10;;;3.13;;
40849;SDS011;26571;41.610;25.380;2022-10-16T01:55:42;9.02;;;3.67;;
40849;SDS011;26571;41.610;25.380;2022-10-16T01:58:12;2.72;;;2.53;;
40849;SDS011;26571;41.610;25.380;2022-10-16T02:03:05;4.75;;;2.75;;
40849;SDS011;26571;41.610;25.380;2022-10-16T02:08:18;3.20;;;3.00;;
40849;SDS011;26571;41.610;25.380;2022-10-16T02:10:44;5.20;;;3.17;;
40849;SDS011;26571;41.610;25.380;2022-10-16T02:15:36;5.93;;;3.05;;
40849;SDS011;26571;41.610;25.380;2022-10-16T02:18:02;5.55;;;3.15;;
40849;SDS011;26571;41.610;25.380;2022-10-16T02:20:32;6.05;;;3.28;;
40849;SDS011;26571;41.610;25.380;2022-10-16T02:25:37;3.30;;;3.00;;
40849;SDS011;26571;41.610;25.380;2022-10-16T02:28:27;5.15;;;3.08;;
40849;SDS011;26571;41.610;25.380;2022-10-16T02:31:03;5.70;;;2.85;;
40849;SDS011;26571;41.610;25.380;2022-10-16T02:33:31;6.70;;;2.83;;
40849;SDS011;26571;41.610;25.380;2022-10-16T02:36:00;7.13;;;3.85;;
40849;SDS011;26571;41.610;25.380;2022-10-16T02:38:26;9.20;;;2.33;;
40849;SDS011;26571;41.610;25.380;2022-10-16T02:40:52;3.53;;;3.03;;
40849;SDS011;26571;41.610;25.380;2022-10-16T02:43:18;7.55;;;2.58;;
40849;SDS011;26571;41.610;25.380;2022-10-16T02:45:44;4.45;;;2.25;;
40849;SDS011;26571;41.610;25.380;2022-10-16T02:48:09;4.35;;;2.65;;
40849;SDS011;26571;41.610;25.380;2022-10-16T02:50:35;3.80;;;2.03;;
40849;SDS011;26571;41.610;25.380;2022-10-16T02:53:00;4.13;;;3.22;;
40849;SDS011;26571;41.610;25.380;2022-10-16T02:55:26;4.15;;;3.63;;
40849;SDS011;26571;41.610;25.380;2022-10-16T02:57:53;4.97;;;2.58;;
40849;SDS011;26571;41.610;25.380;2022-10-16T03:00:19;3.47;;;2.42;;
40849;SDS011;26571;41.610;25.380;2022-10-16T03:02:45;4.05;;;2.63;;
40849;SDS011;26571;41.610;25.380;2022-10-16T03:05:12;5.80;;;3.78;;
40849;SDS011;26571;41.610;25.380;2022-10-16T03:07:38;3.65;;;2.53;;
40849;SDS011;26571;41.610;25.380;2022-10-16T03:10:03;2.97;;;2.20;;
40849;SDS011;26571;41.610;25.380;2022-10-16T03:12:29;8.68;;;2.55;;
40849;SDS011;26571;41.610;25.380;2022-10-16T03:14:55;4.22;;;3.13;;
40849;SDS011;26571;41.610;25.380;2022-10-16T03:17:21;4.38;;;2.55;;
40849;SDS011;26571;41.610;25.380;2022-10-16T03:19:47;3.03;;;2.83;;
40849;SDS011;26571;41.610;25.380;2022-10-16T03:22:12;3.08;;;1.90;;
40849;SDS011;26571;41.610;25.380;2022-10-16T03:24:38;7.15;;;3.00;;
40849;SDS011;26571;41.610;25.380;2022-10-16T03:27:03;3.40;;;2.05;;
40849;SDS011;26571;41.610;25.380;2022-10-16T03:29:28;4.82;;;2.80;;
40849;SDS011;26571;41.610;25.380;2022-10-16T03:31:55;3.22;;;2.42;;
40849;SDS011;26571;41.610;25.380;2022-10-16T03:34:21;2.97;;;2.78;;
40849;SDS011;26571;41.610;25.380;2022-10-16T03:36:46;6.30;;;3.67;;
40849;SDS011;26571;41.610;25.380;2022-10-16T03:39:12;7.25;;;3.28;;
40849;SDS011;26571;41.610;25.380;2022-10-16T03:41:37;3.10;;;2.80;;
40849;SDS011;26571;41.610;25.380;2022-10-16T03:44:03;5.47;;;3.08;;
40849;SDS011;26571;41.610;25.380;2022-10-16T03:46:28;2.05;;;1.95;;
40849;SDS011;26571;41.610;25.380;2022-10-16T03:48:54;4.40;;;1.92;;
40849;SDS011;26571;41.610;25.380;2022-10-16T03:51:20;6.25;;;2.28;;
40849;SDS011;26571;41.610;25.380;2022-10-16T03:53:45;4.60;;;3.05;;
40849;SDS011;26571;41.610;25.380;2022-10-16T03:56:10;3.78;;;2.60;;
40849;SDS011;26571;41.610;25.380;2022-10-16T03:58:36;5.72;;;2.95;;
40849;SDS011;26571;41.610;25.380;2022-10-16T04:01:01;4.03;;;1.85;;
40849;SDS011;26571;41.610;25.380;2022-10-16T04:03:27;4.13;;;3.05;;
40849;SDS011;26571;41.610;25.380;2022-10-16T04:05:52;5.63;;;3.45;;
40849;SDS011;26571;41.610;25.380;2022-10-16T04:08:17;5.60;;;3.10;;
40849;SDS011;26571;41.610;25.380;2022-10-16T04:10:43;7.20;;;3.30;;
40849;SDS011;26571;41.610;25.380;2022-10-16T04:13:09;6.25;;;3.38;;
40849;SDS011;26571;41.610;25.380;2022-10-16T04:15:35;7.32;;;4.07;;
40849;SDS011;26571;41.610;25.380;2022-10-16T04:18:00;6.97;;;3.53;;
40849;SDS011;26571;41.610;25.380;2022-10-16T04:20:25;3.53;;;2.85;;
40849;SDS011;26571;41.610;25.380;2022-10-16T04:22:51;3.03;;;2.80;;
40849;SDS011;26571;41.610;25.380;2022-10-16T04:25:16;7.57;;;2.70;;
40849;SDS011;26571;41.610;25.380;2022-10-16T04:27:42;8.05;;;2.72;;
40849;SDS011;26571;41.610;25.380;2022-10-16T04:30:07;7.95;;;3.35;;
40849;SDS011;26571;41.610;25.380;2022-10-16T04:32:33;3.40;;;3.10;;
40849;SDS011;26571;41.610;25.380;2022-10-16T04:34:58;4.28;;;3.05;;
40849;SDS011;26571;41.610;25.380;2022-10-16T04:37:24;5.20;;;2.95;;
40849;SDS011;26571;41.610;25.380;2022-10-16T04:39:50;6.78;;;3.13;;
40849;SDS011;26571;41.610;25.380;2022-10-16T04:42:16;6.88;;;2.92;;
40849;SDS011;26571;41.610;25.380;2022-10-16T04:44:42;2.88;;;2.63;;
40849;SDS011;26571;41.610;25.380;2022-10-16T04:47:07;5.15;;;3.45;;
40849;SDS011;26571;41.610;25.380;2022-10-16T04:49:32;5.55;;;2.72;;
40849;SDS011;26571;41.610;25.380;2022-10-16T04:51:58;5.53;;;3.58;;
40849;SDS011;26571;41.610;25.380;2022-10-16T04:54:23;4.30;;;2.10;;
40849;SDS011;26571;41.610;25.380;2022-10-16T04:56:49;7.28;;;2.95;;
40849;SDS011;26571;41.610;25.380;2022-10-16T05:01:42;7.25;;;4.03;;
40849;SDS011;26571;41.610;25.380;2022-10-16T05:04:08;4.30;;;3.63;;
40849;SDS011;26571;41.610;25.380;2022-10-16T05:06:33;6.05;;;2.85;;
40849;SDS011;26571;41.610;25.380;2022-10-16T05:08:59;3.35;;;3.15;;
40849;SDS011;26571;41.610;25.380;2022-10-16T05:11:24;3.92;;;2.78;;
40849;SDS011;26571;41.610;25.380;2022-10-16T05:13:50;5.28;;;2.13;;
40849;SDS011;26571;41.610;25.380;2022-10-16T05:16:15;8.15;;;3.20;;
40849;SDS011;26571;41.610;25.380;2022-10-16T05:18:41;5.00;;;2.78;;
40849;SDS011;26571;41.610;25.380;2022-10-16T05:21:06;3.63;;;1.67;;
40849;SDS011;26571;41.610;25.380;2022-10-16T05:23:32;4.50;;;2.13;;
40849;SDS011;26571;41.610;25.380;2022-10-16T05:25:57;4.80;;;1.92;;
40849;SDS011;26571;41.610;25.380;2022-10-16T05:28:25;9.50;;;3.22;;
40849;SDS011;26571;41.610;25.380;2022-10-16T05:30:51;6.45;;;1.95;;
40849;SDS011;26571;41.610;25.380;2022-10-16T05:33:16;10.18;;;2.17;;
40849;SDS011;26571;41.610;25.380;2022-10-16T05:35:42;6.47;;;2.80;;
40849;SDS011;26571;41.610;25.380;2022-10-16T05:38:08;9.13;;;2.58;;
40849;SDS011;26571;41.610;25.380;2022-10-16T05:40:34;4.45;;;1.75;;
40849;SDS011;26571;41.610;25.380;2022-10-16T05:43:00;5.70;;;1.60;;
40849;SDS011;26571;41.610;25.380;2022-10-16T05:45:26;6.78;;;2.78;;
40849;SDS011;26571;41.610;25.380;2022-10-16T05:47:51;9.52;;;2.17;;
40849;SDS011;26571;41.610;25.380;2022-10-16T05:50:17;5.38;;;1.60;;
40849;SDS011;26571;41.610;25.380;2022-10-16T05:52:42;13.70;;;2.67;;
40849;SDS011;26571;41.610;25.380;2022-10-16T05:55:07;3.65;;;1.80;;
40849;SDS011;26571;41.610;25.380;2022-10-16T05:57:33;4.18;;;1.15;;
40849;SDS011;26571;41.610;25.380;2022-10-16T05:59:58;7.10;;;0.93;;
40849;SDS011;26571;41.610;25.380;2022-10-16T06:02:24;7.97;;;1.95;;
40849;SDS011;26571;41.610;25.380;2022-10-16T06:04:51;4.25;;;1.20;;
40849;SDS011;26571;41.610;25.380;2022-10-16T06:07:18;2.20;;;1.42;;
40849;SDS011;26571;41.610;25.380;2022-10-16T06:09:44;2.35;;;1.20;;
40849;SDS011;26571;41.610;25.380;2022-10-16T06:12:13;3.85;;;0.80;;
40849;SDS011;26571;41.610;25.380;2022-10-16T06:14:38;4.10;;;1.83;;
40849;SDS011;26571;41.610;25.380;2022-10-16T06:17:04;1.77;;;1.10;;
40849;SDS011;26571;41.610;25.380;2022-10-16T06:19:29;1.73;;;1.58;;
40849;SDS011;26571;41.610;25.380;2022-10-16T06:21:56;8.48;;;1.95;;
40849;SDS011;26571;41.610;25.380;2022-10-16T06:24:23;7.32;;;2.05;;
40849;SDS011;26571;41.610;25.380;2022-10-16T06:26:48;5.53;;;1.40;;
40849;SDS011;26571;41.610;25.380;2022-10-16T06:29:13;6.40;;;3.17;;
40849;SDS011;26571;41.610;25.380;2022-10-16T06:31:39;3.90;;;1.40;;
40849;SDS011;26571;41.610;25.380;2022-10-16T06:34:04;4.00;;;1.33;;
40849;SDS011;26571;41.610;25.380;2022-10-16T06:36:34;4.80;;;1.25;;
40849;SDS011;26571;41.610;25.380;2022-10-16T06:38:59;5.78;;;1.00;;
40849;SDS011;26571;41.610;25.380;2022-10-16T06:41:25;7.47;;;4.63;;
40849;SDS011;26571;41.610;25.380;2022-10-16T06:43:50;2.60;;;1.48;;
40849;SDS011;26571;41.610;25.380;2022-10-16T06:46:18;1.42;;;0.60;;
40849;SDS011;26571;41.610;25.380;2022-10-16T06:48:46;3.35;;;0.90;;
40849;SDS011;26571;41.610;25.380;2022-10-16T06:51:13;4.67;;;2.43;;
40849;SDS011;26571;41.610;25.380;2022-10-16T06:53:41;3.45;;;2.55;;
40849;SDS011;26571;41.610;25.380;2022-10-16T06:56:12;2.72;;;1.38;;
40849;SDS011;26571;41.610;25.380;2022-10-16T06:58:39;4.43;;;0.98;;
40849;SDS011;26571;41.610;25.380;2022-10-16T07:01:05;0.60;;;0.50;;
40849;SDS011;26571;41.610;25.380;2022-10-16T07:03:31;1.77;;;0.90;;
40849;SDS011;26571;41.610;25.380;2022-10-16T07:05:57;1.87;;;0.77;;
40849;SDS011;26571;41.610;25.380;2022-10-16T07:08:28;7.45;;;0.60;;
40849;SDS011;26571;41.610;25.380;2022-10-16T07:11:00;2.40;;;0.88;;
40849;SDS011;26571;41.610;25.380;2022-10-16T07:13:27;2.05;;;1.33;;
40849;SDS011;26571;41.610;25.380;2022-10-16T07:15:53;1.92;;;1.10;;
40849;SDS011;26571;41.610;25.380;2022-10-16T07:18:18;0.63;;;0.63;;
40849;SDS011;26571;41.610;25.380;2022-10-16T07:20:44;1.17;;;0.88;;
40849;SDS011;26571;41.610;25.380;2022-10-16T07:23:09;2.83;;;1.58;;
40849;SDS011;26571;41.610;25.380;2022-10-16T07:25:35;2.92;;;0.90;;
40849;SDS011;26571;41.610;25.380;2022-10-16T07:28:00;7.88;;;5.20;;
40849;SDS011;26571;41.610;25.380;2022-10-16T07:30:25;9.10;;;6.00;;
40849;SDS011;26571;41.610;25.380;2022-10-16T07:32:51;5.30;;;3.47;;
40849;SDS011;26571;41.610;25.380;2022-10-16T07:35:16;3.45;;;1.40;;
40849;SDS011;26571;41.610;25.380;2022-10-16T07:37:47;1.37;;;1.27;;
40849;SDS011;26571;41.610;25.380;2022-10-16T07:40:13;1.60;;;0.98;;
40849;SDS011;26571;41.610;25.380;2022-10-16T07:42:38;2.22;;;1.48;;
40849;SDS011;26571;41.610;25.380;2022-10-16T07:45:04;3.40;;;0.93;;
40849;SDS011;26571;41.610;25.380;2022-10-16T07:47:30;1.47;;;0.90;;
40849;SDS011;26571;41.610;25.380;2022-10-16T07:49:55;3.08;;;1.10;;
40849;SDS011;26571;41.610;25.380;2022-10-16T07:52:20;1.80;;;1.13;;
40849;SDS011;26571;41.610;25.380;2022-10-16T07:54:46;2.28;;;1.15;;
40849;SDS011;26571;41.610;25.380;2022-10-16T07:57:11;1.70;;;0.70;;
40849;SDS011;26571;41.610;25.380;2022-10-16T07:59:36;4.25;;;0.90;;
40849;SDS011;26571;41.610;25.380;2022-10-16T08:02:02;2.30;;;1.70;;
40849;SDS011;26571;41.610;25.380;2022-10-16T08:04:27;0.98;;;0.77;;
40849;SDS011;26571;41.610;25.380;2022-10-16T08:06:53;4.38;;;1.00;;
40849;SDS011;26571;41.610;25.380;2022-10-16T08:09:19;0.80;;;0.77;;
40849;SDS011;26571;41.610;25.380;2022-10-16T08:11:45;3.15;;;2.15;;
40849;SDS011;26571;41.610;25.380;2022-10-16T08:14:10;2.55;;;2.35;;
40849;SDS011;26571;41.610;25.380;2022-10-16T08:16:35;5.47;;;1.80;;
40849;SDS011;26571;41.610;25.380;2022-10-16T08:19:01;6.28;;;1.00;;
40849;SDS011;26571;41.610;25.380;2022-10-16T08:21:26;1.85;;;1.73;;
40849;SDS011;26571;41.610;25.380;2022-10-16T08:23:52;2.28;;;1.95;;
40849;SDS011;26571;41.610;25.380;2022-10-16T08:26:18;3.67;;;1.00;;
40849;SDS011;26571;41.610;25.380;2022-10-16T08:28:44;5.97;;;1.17;;
40849;SDS011;26571;41.610;25.380;2022-10-16T08:31:11;1.17;;;1.08;;
40849;SDS011;26571;41.610;25.380;2022-10-16T08:33:38;9.45;;;5.63;;
40849;SDS011;26571;41.610;25.380;2022-10-16T08:36:05;2.70;;;1.95;;
40849;SDS011;26571;41.610;25.380;2022-10-16T08:38:31;7.67;;;4.07;;
40849;SDS011;26571;41.610;25.380;2022-10-16T08:41:11;6.25;;;3.10;;
40849;SDS011;26571;41.610;25.380;2022-10-16T08:47:00;6.53;;;3.30;;
40849;SDS011;26571;41.610;25.380;2022-10-16T08:49:36;2.38;;;1.80;;
40849;SDS011;26571;41.610;25.380;2022-10-16T08:52:08;5.00;;;2.25;;
40849;SDS011;26571;41.610;25.380;2022-10-16T08:54:41;4.22;;;2.75;;
40849;SDS011;26571;41.610;25.380;2022-10-16T08:57:12;2.75;;;2.28;;
40849;SDS011;26571;41.610;25.380;2022-10-16T08:59:40;4.60;;;2.67;;
40849;SDS011;26571;41.610;25.380;2022-10-16T09:10:29;6.30;;;3.00;;
40849;SDS011;26571;41.610;25.380;2022-10-16T09:13:07;5.65;;;3.13;;
40849;SDS011;26571;41.610;25.380;2022-10-16T09:16:22;6.10;;;3.15;;
40849;SDS011;26571;41.610;25.380;2022-10-16T09:21:35;3.67;;;3.38;;
40849;SDS011;26571;41.610;25.380;2022-10-16T09:24:37;7.03;;;6.05;;
40849;SDS011;26571;41.610;25.380;2022-10-16T09:26:55;3.35;;;3.05;;
40849;SDS011;26571;41.610;25.380;2022-10-16T09:29:21;3.75;;;3.38;;
40849;SDS011;26571;41.610;25.380;2022-10-16T09:31:49;2.72;;;2.10;;
40849;SDS011;26571;41.610;25.380;2022-10-16T09:34:36;3.35;;;2.95;;
40849;SDS011;26571;41.610;25.380;2022-10-16T09:37:12;3.95;;;2.58;;
40849;SDS011;26571;41.610;25.380;2022-10-16T09:42:16;3.88;;;3.28;;
40849;SDS011;26571;41.610;25.380;2022-10-16T09:44:48;2.80;;;2.58;;
40849;SDS011;26571;41.610;25.380;2022-10-16T09:47:17;7.57;;;3.72;;
40849;SDS011;26571;41.610;25.380;2022-10-16T09:49:52;3.58;;;2.70;;
40849;SDS011;26571;41.610;25.380;2022-10-16T09:52:23;3.30;;;2.60;;
40849;SDS011;26571;41.610;25.380;2022-10-16T09:54:53;9.15;;;3.45;;
40849;SDS011;26571;41.610;25.380;2022-10-16T09:57:21;3.92;;;3.55;;
40849;SDS011;26571;41.610;25.380;2022-10-16T09:59:50;2.83;;;2.53;;
40849;SDS011;26571;41.610;25.380;2022-10-16T10:02:29;2.95;;;2.75;;
40849;SDS011;26571;41.610;25.380;2022-10-16T10:05:03;9.45;;;3.72;;
40849;SDS011;26571;41.610;25.380;2022-10-16T10:07:31;4.88;;;2.85;;
40849;SDS011;26571;41.610;25.380;2022-10-16T10:09:59;3.78;;;3.30;;
40849;SDS011;26571;41.610;25.380;2022-10-16T10:12:28;4.40;;;3.75;;
40849;SDS011;26571;41.610;25.380;2022-10-16T10:14:57;4.35;;;3.35;;
40849;SDS011;26571;41.610;25.380;2022-10-16T10:17:29;4.32;;;3.92;;
40849;SDS011;26571;41.610;25.380;2022-10-16T10:19:58;3.85;;;3.30;;
40849;SDS011;26571;41.610;25.380;2022-10-16T10:22:39;7.32;;;3.63;;
40849;SDS011;26571;41.610;25.380;2022-10-16T10:33:16;4.70;;;3.30;;
40849;SDS011;26571;41.610;25.380;2022-10-16T10:46:38;5.90;;;4.00;;
40849;SDS011;26571;41.610;25.380;2022-10-16T10:49:16;4.60;;;4.20;;
40849;SDS011;26571;41.610;25.380;2022-10-16T10:54:38;5.47;;;4.15;;
40849;SDS011;26571;41.610;25.380;2022-10-16T11:08:00;4.72;;;4.30;;
40849;SDS011;26571;41.610;25.380;2022-10-16T11:11:17;4.65;;;4.18;;
40849;SDS011;26571;41.610;25.380;2022-10-16T11:16:29;4.57;;;4.18;;
40849;SDS011;26571;41.610;25.380;2022-10-16T11:19:05;5.82;;;3.72;;
40849;SDS011;26571;41.610;25.380;2022-10-16T11:21:46;6.05;;;3.97;;
40849;SDS011;26571;41.610;25.380;2022-10-16T11:24:19;6.70;;;4.10;;
40849;SDS011;26571;41.610;25.380;2022-10-16T11:26:47;3.88;;;3.13;;
40849;SDS011;26571;41.610;25.380;2022-10-16T11:29:17;4.45;;;4.05;;
40849;SDS011;26571;41.610;25.380;2022-10-16T11:31:49;3.45;;;3.15;;
40849;SDS011;26571;41.610;25.380;2022-10-16T11:34:22;6.32;;;3.65;;
40849;SDS011;26571;41.610;25.380;2022-10-16T11:37:19;5.53;;;3.85;;
40849;SDS011;26571;41.610;25.380;2022-10-16T11:39:52;3.65;;;3.03;;
40849;SDS011;26571;41.610;25.380;2022-10-16T11:45:03;3.50;;;3.20;;
40849;SDS011;26571;41.610;25.380;2022-10-16T11:51:16;5.70;;;3.80;;
40849;SDS011;26571;41.610;25.380;2022-10-16T11:53:51;4.70;;;3.42;;
40849;SDS011;26571;41.610;25.380;2022-10-16T11:56:24;3.38;;;3.10;;
40849;SDS011;26571;41.610;25.380;2022-10-16T12:01:30;3.22;;;2.88;;
40849;SDS011;26571;41.610;25.380;2022-10-16T12:04:12;3.72;;;3.35;;
40849;SDS011;26571;41.610;25.380;2022-10-16T12:06:58;3.85;;;3.15;;
40849;SDS011;26571;41.610;25.380;2022-10-16T12:09:30;5.90;;;3.08;;
40849;SDS011;26571;41.610;25.380;2022-10-16T12:11:58;3.30;;;2.97;;
40849;SDS011;26571;41.610;25.380;2022-10-16T12:19:43;3.55;;;3.25;;
40849;SDS011;26571;41.610;25.380;2022-10-16T12:22:15;3.28;;;2.75;;
40849;SDS011;26571;41.610;25.380;2022-10-16T12:24:43;4.43;;;3.38;;
40849;SDS011;26571;41.610;25.380;2022-10-16T12:27:52;4.05;;;3.08;;
40849;SDS011;26571;41.610;25.380;2022-10-16T12:30:01;6.80;;;2.75;;
40849;SDS011;26571;41.610;25.380;2022-10-16T12:32:34;2.63;;;2.42;;
40849;SDS011;26571;41.610;25.380;2022-10-16T12:35:02;2.85;;;2.65;;
40849;SDS011;26571;41.610;25.380;2022-10-16T12:37:33;3.13;;;2.92;;
40849;SDS011;26571;41.610;25.380;2022-10-16T12:40:11;5.70;;;2.92;;
40849;SDS011;26571;41.610;25.380;2022-10-16T12:42:48;3.95;;;2.70;;
40849;SDS011;26571;41.610;25.380;2022-10-16T12:47:51;7.07;;;4.32;;
40849;SDS011;26571;41.610;25.380;2022-10-16T12:50:51;3.35;;;3.13;;
40849;SDS011;26571;41.610;25.380;2022-10-16T12:53:20;5.68;;;2.10;;
40849;SDS011;26571;41.610;25.380;2022-10-16T12:58:33;4.57;;;1.42;;
40849;SDS011;26571;41.610;25.380;2022-10-16T13:01:10;2.08;;;1.90;;
40849;SDS011;26571;41.610;25.380;2022-10-16T13:19:25;2.40;;;2.15;;
40849;SDS011;26571;41.610;25.380;2022-10-16T13:22:11;3.25;;;2.20;;
40849;SDS011;26571;41.610;25.380;2022-10-16T13:28:13;2.90;;;1.65;;
40849;SDS011;26571;41.610;25.380;2022-10-16T13:33:13;3.87;;;1.90;;
40849;SDS011;26571;41.610;25.380;2022-10-16T13:35:52;2.25;;;1.45;;
40849;SDS011;26571;41.610;25.380;2022-10-16T13:38:22;8.13;;;2.20;;
40849;SDS011;26571;41.610;25.380;2022-10-16T13:43:23;2.30;;;2.08;;
40849;SDS011;26571;41.610;25.380;2022-10-16T13:45:53;1.80;;;1.70;;
40849;SDS011;26571;41.610;25.380;2022-10-16T13:48:23;1.70;;;1.60;;
40849;SDS011;26571;41.610;25.380;2022-10-16T13:53:31;2.67;;;1.13;;
40849;SDS011;26571;41.610;25.380;2022-10-16T13:55:58;2.85;;;1.75;;
40849;SDS011;26571;41.610;25.380;2022-10-16T14:00:54;2.22;;;1.20;;
40849;SDS011;26571;41.610;25.380;2022-10-16T14:03:21;2.25;;;0.98;;
40849;SDS011;26571;41.610;25.380;2022-10-16T14:05:48;4.55;;;1.20;;
40849;SDS011;26571;41.610;25.380;2022-10-16T14:08:16;3.25;;;0.90;;
40849;SDS011;26571;41.610;25.380;2022-10-16T14:10:42;2.38;;;0.90;;
40849;SDS011;26571;41.610;25.380;2022-10-16T14:13:07;2.55;;;1.13;;
40849;SDS011;26571;41.610;25.380;2022-10-16T14:15:40;1.40;;;1.05;;
40849;SDS011;26571;41.610;25.380;2022-10-16T14:18:21;1.50;;;1.00;;
40849;SDS011;26571;41.610;25.380;2022-10-16T14:20:50;1.20;;;0.80;;
40849;SDS011;26571;41.610;25.380;2022-10-16T14:26:05;2.17;;;1.08;;
40849;SDS011;26571;41.610;25.380;2022-10-16T14:28:33;4.07;;;1.10;;
40849;SDS011;26571;41.610;25.380;2022-10-16T14:31:00;2.10;;;1.20;;
40849;SDS011;26571;41.610;25.380;2022-10-16T14:38:36;2.85;;;1.10;;
40849;SDS011;26571;41.610;25.380;2022-10-16T14:41:06;1.13;;;0.82;;
40849;SDS011;26571;41.610;25.380;2022-10-16T14:43:33;4.68;;;1.15;;
40849;SDS011;26571;41.610;25.380;2022-10-16T14:46:02;2.65;;;0.70;;
40849;SDS011;26571;41.610;25.380;2022-10-16T14:48:30;2.55;;;0.88;;
40849;SDS011;26571;41.610;25.380;2022-10-16T14:50:56;3.08;;;1.80;;
40849;SDS011;26571;41.610;25.380;2022-10-16T14:53:21;3.88;;;2.30;;
40849;SDS011;26571;41.610;25.380;2022-10-16T14:55:47;2.47;;;1.48;;
40849;SDS011;26571;41.610;25.380;2022-10-16T14:58:17;1.50;;;1.33;;
40849;SDS011;26571;41.610;25.380;2022-10-16T15:00:45;2.35;;;1.30;;
40849;SDS011;26571;41.610;25.380;2022-10-16T15:03:11;2.80;;;0.80;;
40849;SDS011;26571;41.610;25.380;2022-10-16T15:05:36;2.05;;;1.17;;
40849;SDS011;26571;41.610;25.380;2022-10-16T15:08:02;1.15;;;0.93;;
40849;SDS011;26571;41.610;25.380;2022-10-16T15:10:29;3.33;;;1.33;;
40849;SDS011;26571;41.610;25.380;2022-10-16T15:18:02;3.03;;;1.88;;
40849;SDS011;26571;41.610;25.380;2022-10-16T15:20:28;1.77;;;0.93;;
40849;SDS011;26571;41.610;25.380;2022-10-16T15:22:58;4.97;;;1.23;;
40849;SDS011;26571;41.610;25.380;2022-10-16T15:25:38;4.45;;;2.28;;
40849;SDS011;26571;41.610;25.380;2022-10-16T15:28:07;2.22;;;1.17;;
40849;SDS011;26571;41.610;25.380;2022-10-16T15:30:33;1.80;;;1.70;;
40849;SDS011;26571;41.610;25.380;2022-10-16T15:32:59;3.75;;;1.48;;
40849;SDS011;26571;41.610;25.380;2022-10-16T15:35:24;6.40;;;2.95;;
40849;SDS011;26571;41.610;25.380;2022-10-16T15:37:50;3.38;;;2.60;;
40849;SDS011;26571;41.610;25.380;2022-10-16T15:40:17;6.50;;;2.00;;
40849;SDS011;26571;41.610;25.380;2022-10-16T15:42:43;2.40;;;2.20;;
40849;SDS011;26571;41.610;25.380;2022-10-16T15:45:09;3.60;;;3.17;;
40849;SDS011;26571;41.610;25.380;2022-10-16T15:47:35;4.63;;;1.77;;
40849;SDS011;26571;41.610;25.380;2022-10-16T15:50:00;3.17;;;1.90;;
40849;SDS011;26571;41.610;25.380;2022-10-16T15:52:26;4.20;;;2.92;;
40849;SDS011;26571;41.610;25.380;2022-10-16T15:54:53;3.28;;;2.85;;
40849;SDS011;26571;41.610;25.380;2022-10-16T15:57:19;5.82;;;2.55;;
40849;SDS011;26571;41.610;25.380;2022-10-16T15:59:44;6.57;;;2.65;;
40849;SDS011;26571;41.610;25.380;2022-10-16T16:02:10;2.15;;;1.95;;
40849;SDS011;26571;41.610;25.380;2022-10-16T16:04:35;3.67;;;2.33;;
40849;SDS011;26571;41.610;25.380;2022-10-16T16:07:01;2.95;;;1.73;;
40849;SDS011;26571;41.610;25.380;2022-10-16T16:09:28;5.35;;;1.80;;
40849;SDS011;26571;41.610;25.380;2022-10-16T16:11:54;4.68;;;2.05;;
40849;SDS011;26571;41.610;25.380;2022-10-16T16:14:20;5.55;;;3.53;;
40849;SDS011;26571;41.610;25.380;2022-10-16T16:16:46;5.82;;;4.47;;
40849;SDS011;26571;41.610;25.380;2022-10-16T16:19:11;13.07;;;5.78;;
40849;SDS011;26571;41.610;25.380;2022-10-16T16:21:37;11.02;;;5.65;;
40849;SDS011;26571;41.610;25.380;2022-10-16T16:24:03;13.63;;;7.93;;
40849;SDS011;26571;41.610;25.380;2022-10-16T16:26:33;14.68;;;7.60;;
40849;SDS011;26571;41.610;25.380;2022-10-16T16:29:01;16.85;;;7.60;;
40849;SDS011;26571;41.610;25.380;2022-10-16T16:31:29;26.13;;;7.65;;
40849;SDS011;26571;41.610;25.380;2022-10-16T16:33:56;14.52;;;6.43;;
40849;SDS011;26571;41.610;25.380;2022-10-16T16:36:22;15.38;;;7.20;;
40849;SDS011;26571;41.610;25.380;2022-10-16T16:38:48;11.07;;;5.85;;
40849;SDS011;26571;41.610;25.380;2022-10-16T16:41:18;7.45;;;4.53;;
40849;SDS011;26571;41.610;25.380;2022-10-16T16:43:45;6.40;;;4.50;;
40849;SDS011;26571;41.610;25.380;2022-10-16T16:46:12;9.38;;;3.22;;
40849;SDS011;26571;41.610;25.380;2022-10-16T16:48:38;6.25;;;3.80;;
40849;SDS011;26571;41.610;25.380;2022-10-16T16:51:10;10.18;;;4.55;;
40849;SDS011;26571;41.610;25.380;2022-10-16T16:53:44;7.10;;;5.53;;
40849;SDS011;26571;41.610;25.380;2022-10-16T16:56:12;12.52;;;6.80;;
40849;SDS011;26571;41.610;25.380;2022-10-16T16:58:38;10.63;;;7.10;;
40849;SDS011;26571;41.610;25.380;2022-10-16T17:01:04;9.23;;;5.85;;
40849;SDS011;26571;41.610;25.380;2022-10-16T17:03:30;8.15;;;4.43;;
40849;SDS011;26571;41.610;25.380;2022-10-16T17:06:01;5.47;;;3.08;;